sensor_id;sensor_type;location;lat;lon;timestamp;P1;durP1;ratioP1;P2;durP2;ratioP2
35606;SDS011;21729;58.392;15.656;2022-11-20T00:01:12;3.70;;;3.40;;
35606;SDS011;21729;58.392;15.656;2022-11-20T00:03:41;5.05;;;3.45;;
35606;SDS011;21729;58.392;15.656;2022-11-20T00:06:10;4.18;;;3.72;;
35606;SDS011;21729;58.392;15.656;2022-11-20T00:08:39;4.15;;;3.75;;
35606;SDS011;21729;58.392;15.656;2022-11-20T00:11:06;3.90;;;3.50;;
35606;SDS011;21729;58.392;15.656;2022-11-20T00:13:39;3.50;;;3.03;;
35606;SDS011;21729;58.392;15.656;2022-11-20T00:16:07;4.45;;;3.17;;
35606;SDS011;21729;58.392;15.656;2022-11-20T00:18:36;3.88;;;3.35;;
35606;SDS011;21729;58.392;15.656;2022-11-20T00:21:03;3.80;;;3.28;;
35606;SDS011;21729;58.392;15.656;2022-11-20T00:23:33;4.10;;;3.70;;
35606;SDS011;21729;58.392;15.656;2022-11-20T00:26:03;3.83;;;3.42;;
35606;SDS011;21729;58.392;15.656;2022-11-20T00:28:32;4.15;;;3.78;;
35606;SDS011;21729;58.392;15.656;2022-11-20T00:31:02;5.15;;;4.00;;
35606;SDS011;21729;58.392;15.656;2022-11-20T00:33:30;4.72;;;3.92;;
35606;SDS011;21729;58.392;15.656;2022-11-20T00:36:00;5.05;;;4.18;;
35606;SDS011;21729;58.392;15.656;2022-11-20T00:38:28;4.47;;;4.07;;
35606;SDS011;21729;58.392;15.656;2022-11-20T00:40:58;4.45;;;3.88;;
35606;SDS011;21729;58.392;15.656;2022-11-20T00:43:26;5.00;;;4.07;;
35606;SDS011;21729;58.392;15.656;2022-11-20T00:45:56;5.75;;;4.10;;
35606;SDS011;21729;58.392;15.656;2022-11-20T00:48:23;3.97;;;3.42;;
35606;SDS011;21729;58.392;15.656;2022-11-20T00:50:50;4.32;;;3.92;;
35606;SDS011;21729;58.392;15.656;2022-11-20T00:53:18;5.28;;;3.78;;
35606;SDS011;21729;58.392;15.656;2022-11-20T00:55:52;4.00;;;3.60;;
35606;SDS011;21729;58.392;15.656;2022-11-20T00:58:21;5.20;;;3.72;;
35606;SDS011;21729;58.392;15.656;2022-11-20T01:00:48;3.55;;;3.25;;
35606;SDS011;21729;58.392;15.656;2022-11-20T01:03:15;3.80;;;3.50;;
35606;SDS011;21729;58.392;15.656;2022-11-20T01:05:43;3.70;;;3.30;;
35606;SDS011;21729;58.392;15.656;2022-11-20T01:08:10;3.72;;;3.42;;
35606;SDS011;21729;58.392;15.656;2022-11-20T01:10:37;3.53;;;3.22;;
35606;SDS011;21729;58.392;15.656;2022-11-20T01:13:04;4.20;;;3.20;;
35606;SDS011;21729;58.392;15.656;2022-11-20T01:15:50;4.40;;;3.35;;
35606;SDS011;21729;58.392;15.656;2022-11-20T01:18:17;3.30;;;3.00;;
35606;SDS011;21729;58.392;15.656;2022-11-20T01:20:44;3.22;;;2.92;;
35606;SDS011;21729;58.392;15.656;2022-11-20T01:23:11;3.38;;;3.08;;
35606;SDS011;21729;58.392;15.656;2022-11-20T01:25:38;3.00;;;2.80;;
35606;SDS011;21729;58.392;15.656;2022-11-20T01:28:05;3.10;;;2.90;;
35606;SDS011;21729;58.392;15.656;2022-11-20T01:30:32;3.30;;;3.00;;
35606;SDS011;21729;58.392;15.656;2022-11-20T01:33:01;3.30;;;3.00;;
35606;SDS011;21729;58.392;15.656;2022-11-20T01:35:28;2.80;;;2.60;;
35606;SDS011;21729;58.392;15.656;2022-11-20T01:37:55;2.72;;;2.53;;
35606;SDS011;21729;58.392;15.656;2022-11-20T01:40:22;3.00;;;2.70;;
35606;SDS011;21729;58.392;15.656;2022-11-20T01:42:52;3.10;;;2.75;;
35606;SDS011;21729;58.392;15.656;2022-11-20T01:45:56;2.80;;;2.58;;
35606;SDS011;21729;58.392;15.656;2022-11-20T01:48:31;3.05;;;2.75;;
35606;SDS011;21729;58.392;15.656;2022-11-20T01:51:04;3.55;;;2.60;;
35606;SDS011;21729;58.392;15.656;2022-11-20T01:53:37;2.90;;;2.70;;
35606;SDS011;21729;58.392;15.656;2022-11-20T01:56:05;2.80;;;2.60;;
35606;SDS011;21729;58.392;15.656;2022-11-20T01:58:37;3.70;;;2.78;;
35606;SDS011;21729;58.392;15.656;2022-11-20T02:01:08;3.37;;;3.07;;
35606;SDS011;21729;58.392;15.656;2022-11-20T02:03:37;3.50;;;2.92;;
35606;SDS011;21729;58.392;15.656;2022-11-20T02:06:06;3.30;;;3.00;;
35606;SDS011;21729;58.392;15.656;2022-11-20T02:08:38;3.20;;;2.90;;
35606;SDS011;21729;58.392;15.656;2022-11-20T02:11:05;3.07;;;2.80;;
35606;SDS011;21729;58.392;15.656;2022-11-20T02:13:33;3.25;;;2.95;;
35606;SDS011;21729;58.392;15.656;2022-11-20T02:16:10;3.00;;;2.75;;
35606;SDS011;21729;58.392;15.656;2022-11-20T02:18:41;3.10;;;2.80;;
35606;SDS011;21729;58.392;15.656;2022-11-20T02:21:10;2.92;;;2.70;;
35606;SDS011;21729;58.392;15.656;2022-11-20T02:26:41;2.70;;;2.50;;
35606;SDS011;21729;58.392;15.656;2022-11-20T02:29:12;2.88;;;2.65;;
35606;SDS011;21729;58.392;15.656;2022-11-20T02:31:42;2.95;;;2.67;;
35606;SDS011;21729;58.392;15.656;2022-11-20T02:34:10;2.70;;;2.50;;
35606;SDS011;21729;58.392;15.656;2022-11-20T02:36:38;2.75;;;2.53;;
35606;SDS011;21729;58.392;15.656;2022-11-20T02:39:06;2.83;;;2.60;;
35606;SDS011;21729;58.392;15.656;2022-11-20T02:41:37;2.80;;;2.60;;
35606;SDS011;21729;58.392;15.656;2022-11-20T02:44:05;2.90;;;2.70;;
35606;SDS011;21729;58.392;15.656;2022-11-20T02:46:32;2.40;;;2.20;;
35606;SDS011;21729;58.392;15.656;2022-11-20T02:49:00;2.60;;;2.40;;
35606;SDS011;21729;58.392;15.656;2022-11-20T02:51:28;2.60;;;2.40;;
35606;SDS011;21729;58.392;15.656;2022-11-20T02:53:55;2.55;;;2.35;;
35606;SDS011;21729;58.392;15.656;2022-11-20T02:56:22;2.40;;;2.20;;
35606;SDS011;21729;58.392;15.656;2022-11-20T02:58:52;2.40;;;2.20;;
35606;SDS011;21729;58.392;15.656;2022-11-20T03:01:19;2.92;;;2.20;;
35606;SDS011;21729;58.392;15.656;2022-11-20T03:03:46;2.60;;;2.40;;
35606;SDS011;21729;58.392;15.656;2022-11-20T03:06:14;2.40;;;2.20;;
35606;SDS011;21729;58.392;15.656;2022-11-20T03:08:41;2.45;;;2.25;;
35606;SDS011;21729;58.392;15.656;2022-11-20T03:11:09;3.20;;;2.42;;
35606;SDS011;21729;58.392;15.656;2022-11-20T03:13:36;2.30;;;2.10;;
35606;SDS011;21729;58.392;15.656;2022-11-20T03:16:09;2.30;;;2.10;;
35606;SDS011;21729;58.392;15.656;2022-11-20T03:18:37;2.50;;;2.30;;
35606;SDS011;21729;58.392;15.656;2022-11-20T03:21:05;2.65;;;2.20;;
35606;SDS011;21729;58.392;15.656;2022-11-20T03:23:32;2.20;;;2.00;;
35606;SDS011;21729;58.392;15.656;2022-11-20T03:26:07;2.43;;;2.20;;
35606;SDS011;21729;58.392;15.656;2022-11-20T03:28:36;2.13;;;1.92;;
35606;SDS011;21729;58.392;15.656;2022-11-20T03:31:05;2.78;;;2.00;;
35606;SDS011;21729;58.392;15.656;2022-11-20T03:33:34;2.13;;;1.95;;
35606;SDS011;21729;58.392;15.656;2022-11-20T03:36:02;2.17;;;1.98;;
35606;SDS011;21729;58.392;15.656;2022-11-20T03:38:30;2.25;;;2.10;;
35606;SDS011;21729;58.392;15.656;2022-11-20T03:40:58;2.90;;;2.13;;
35606;SDS011;21729;58.392;15.656;2022-11-20T03:43:26;2.22;;;2.03;;
35606;SDS011;21729;58.392;15.656;2022-11-20T03:45:53;2.45;;;2.25;;
35606;SDS011;21729;58.392;15.656;2022-11-20T03:48:22;2.30;;;2.10;;
35606;SDS011;21729;58.392;15.656;2022-11-20T03:50:50;2.20;;;2.00;;
35606;SDS011;21729;58.392;15.656;2022-11-20T03:53:17;2.50;;;2.30;;
35606;SDS011;21729;58.392;15.656;2022-11-20T03:55:45;2.40;;;2.13;;
35606;SDS011;21729;58.392;15.656;2022-11-20T03:58:16;2.53;;;2.25;;
35606;SDS011;21729;58.392;15.656;2022-11-20T04:00:43;2.90;;;2.10;;
35606;SDS011;21729;58.392;15.656;2022-11-20T04:03:10;2.78;;;2.10;;
35606;SDS011;21729;58.392;15.656;2022-11-20T04:05:39;2.40;;;2.20;;
35606;SDS011;21729;58.392;15.656;2022-11-20T04:08:06;2.72;;;2.30;;
35606;SDS011;21729;58.392;15.656;2022-11-20T04:10:33;2.58;;;2.28;;
35606;SDS011;21729;58.392;15.656;2022-11-20T04:13:00;2.70;;;2.50;;
35606;SDS011;21729;58.392;15.656;2022-11-20T04:15:27;2.50;;;2.30;;
35606;SDS011;21729;58.392;15.656;2022-11-20T04:17:54;2.40;;;2.20;;
35606;SDS011;21729;58.392;15.656;2022-11-20T04:20:21;2.50;;;2.30;;
35606;SDS011;21729;58.392;15.656;2022-11-20T04:22:50;2.50;;;2.30;;
35606;SDS011;21729;58.392;15.656;2022-11-20T04:25:20;3.13;;;2.10;;
35606;SDS011;21729;58.392;15.656;2022-11-20T04:27:47;3.47;;;2.22;;
35606;SDS011;21729;58.392;15.656;2022-11-20T04:30:14;3.05;;;2.38;;
35606;SDS011;21729;58.392;15.656;2022-11-20T04:32:41;2.50;;;2.30;;
35606;SDS011;21729;58.392;15.656;2022-11-20T04:35:08;2.40;;;2.20;;
35606;SDS011;21729;58.392;15.656;2022-11-20T04:37:35;2.53;;;2.33;;
35606;SDS011;21729;58.392;15.656;2022-11-20T04:40:04;2.83;;;2.28;;
35606;SDS011;21729;58.392;15.656;2022-11-20T04:42:31;2.77;;;2.57;;
35606;SDS011;21729;58.392;15.656;2022-11-20T04:44:59;2.60;;;2.40;;
35606;SDS011;21729;58.392;15.656;2022-11-20T04:47:26;2.60;;;2.40;;
35606;SDS011;21729;58.392;15.656;2022-11-20T04:49:53;2.42;;;2.22;;
35606;SDS011;21729;58.392;15.656;2022-11-20T04:52:20;2.50;;;2.30;;
35606;SDS011;21729;58.392;15.656;2022-11-20T04:54:47;2.88;;;2.20;;
35606;SDS011;21729;58.392;15.656;2022-11-20T04:57:16;2.38;;;2.17;;
35606;SDS011;21729;58.392;15.656;2022-11-20T04:59:43;2.60;;;2.40;;
35606;SDS011;21729;58.392;15.656;2022-11-20T05:02:10;2.30;;;2.10;;
35606;SDS011;21729;58.392;15.656;2022-11-20T05:04:38;2.65;;;2.40;;
35606;SDS011;21729;58.392;15.656;2022-11-20T05:07:05;2.47;;;2.20;;
35606;SDS011;21729;58.392;15.656;2022-11-20T05:09:32;2.25;;;2.05;;
35606;SDS011;21729;58.392;15.656;2022-11-20T05:11:59;2.20;;;2.00;;
35606;SDS011;21729;58.392;15.656;2022-11-20T05:14:27;2.35;;;2.15;;
35606;SDS011;21729;58.392;15.656;2022-11-20T05:16:54;2.22;;;2.03;;
35606;SDS011;21729;58.392;15.656;2022-11-20T05:19:21;2.55;;;2.13;;
35606;SDS011;21729;58.392;15.656;2022-11-20T05:21:48;2.00;;;1.80;;
35606;SDS011;21729;58.392;15.656;2022-11-20T05:24:15;3.70;;;2.15;;
35606;SDS011;21729;58.392;15.656;2022-11-20T05:26:42;2.45;;;2.20;;
35606;SDS011;21729;58.392;15.656;2022-11-20T05:29:10;3.17;;;1.95;;
35606;SDS011;21729;58.392;15.656;2022-11-20T05:31:39;2.20;;;1.80;;
35606;SDS011;21729;58.392;15.656;2022-11-20T05:34:07;2.30;;;2.10;;
35606;SDS011;21729;58.392;15.656;2022-11-20T05:36:34;2.20;;;2.00;;
35606;SDS011;21729;58.392;15.656;2022-11-20T05:39:01;2.15;;;1.95;;
35606;SDS011;21729;58.392;15.656;2022-11-20T05:41:28;2.40;;;1.98;;
35606;SDS011;21729;58.392;15.656;2022-11-20T05:43:56;2.42;;;1.98;;
35606;SDS011;21729;58.392;15.656;2022-11-20T05:46:24;2.10;;;1.90;;
35606;SDS011;21729;58.392;15.656;2022-11-20T05:48:54;2.45;;;2.20;;
35606;SDS011;21729;58.392;15.656;2022-11-20T05:51:22;2.40;;;2.20;;
35606;SDS011;21729;58.392;15.656;2022-11-20T05:53:50;2.10;;;2.00;;
35606;SDS011;21729;58.392;15.656;2022-11-20T05:56:17;2.08;;;1.98;;
35606;SDS011;21729;58.392;15.656;2022-11-20T05:58:46;3.00;;;2.20;;
35606;SDS011;21729;58.392;15.656;2022-11-20T06:01:14;2.45;;;2.22;;
35606;SDS011;21729;58.392;15.656;2022-11-20T06:03:44;2.20;;;2.00;;
35606;SDS011;21729;58.392;15.656;2022-11-20T06:06:14;2.33;;;2.13;;
35606;SDS011;21729;58.392;15.656;2022-11-20T06:08:42;2.58;;;2.00;;
35606;SDS011;21729;58.392;15.656;2022-11-20T06:11:10;2.35;;;2.15;;
35606;SDS011;21729;58.392;15.656;2022-11-20T06:13:38;2.30;;;2.10;;
35606;SDS011;21729;58.392;15.656;2022-11-20T06:16:06;2.60;;;2.27;;
35606;SDS011;21729;58.392;15.656;2022-11-20T06:18:33;2.17;;;1.98;;
35606;SDS011;21729;58.392;15.656;2022-11-20T06:21:01;2.53;;;1.90;;
35606;SDS011;21729;58.392;15.656;2022-11-20T06:23:31;2.30;;;2.10;;
35606;SDS011;21729;58.392;15.656;2022-11-20T06:26:00;2.33;;;2.13;;
35606;SDS011;21729;58.392;15.656;2022-11-20T06:28:28;2.65;;;2.20;;
35606;SDS011;21729;58.392;15.656;2022-11-20T06:30:56;2.33;;;2.13;;
35606;SDS011;21729;58.392;15.656;2022-11-20T06:33:23;2.40;;;2.20;;
35606;SDS011;21729;58.392;15.656;2022-11-20T06:35:50;2.30;;;2.10;;
35606;SDS011;21729;58.392;15.656;2022-11-20T06:38:17;2.20;;;2.00;;
35606;SDS011;21729;58.392;15.656;2022-11-20T06:40:46;2.20;;;2.00;;
35606;SDS011;21729;58.392;15.656;2022-11-20T06:43:13;2.22;;;1.88;;
35606;SDS011;21729;58.392;15.656;2022-11-20T06:45:40;2.22;;;2.08;;
35606;SDS011;21729;58.392;15.656;2022-11-20T06:48:08;2.20;;;2.00;;
35606;SDS011;21729;58.392;15.656;2022-11-20T06:50:36;2.00;;;1.90;;
35606;SDS011;21729;58.392;15.656;2022-11-20T06:53:03;2.60;;;2.00;;
35606;SDS011;21729;58.392;15.656;2022-11-20T06:55:31;2.50;;;2.17;;
35606;SDS011;21729;58.392;15.656;2022-11-20T06:58:00;2.35;;;2.15;;
35606;SDS011;21729;58.392;15.656;2022-11-20T07:00:27;2.42;;;2.22;;
35606;SDS011;21729;58.392;15.656;2022-11-20T07:02:55;2.40;;;2.20;;
35606;SDS011;21729;58.392;15.656;2022-11-20T07:05:22;2.60;;;2.17;;
35606;SDS011;21729;58.392;15.656;2022-11-20T07:07:49;2.40;;;2.20;;
35606;SDS011;21729;58.392;15.656;2022-11-20T07:10:16;2.60;;;2.40;;
35606;SDS011;21729;58.392;15.656;2022-11-20T07:12:48;3.00;;;2.00;;
35606;SDS011;21729;58.392;15.656;2022-11-20T07:15:17;2.40;;;2.20;;
35606;SDS011;21729;58.392;15.656;2022-11-20T07:17:45;2.20;;;2.00;;
35606;SDS011;21729;58.392;15.656;2022-11-20T07:20:12;2.40;;;2.20;;
35606;SDS011;21729;58.392;15.656;2022-11-20T07:22:39;1.83;;;1.73;;
35606;SDS011;21729;58.392;15.656;2022-11-20T07:25:07;1.83;;;1.73;;
35606;SDS011;21729;58.392;15.656;2022-11-20T07:27:34;1.80;;;1.70;;
35606;SDS011;21729;58.392;15.656;2022-11-20T07:30:02;1.77;;;1.67;;
35606;SDS011;21729;58.392;15.656;2022-11-20T07:32:31;1.85;;;1.65;;
35606;SDS011;21729;58.392;15.656;2022-11-20T07:34:58;2.28;;;1.55;;
35606;SDS011;21729;58.392;15.656;2022-11-20T07:37:25;1.90;;;1.80;;
35606;SDS011;21729;58.392;15.656;2022-11-20T07:39:52;1.90;;;1.80;;
35606;SDS011;21729;58.392;15.656;2022-11-20T07:42:20;2.00;;;1.80;;
35606;SDS011;21729;58.392;15.656;2022-11-20T07:44:47;1.80;;;1.70;;
35606;SDS011;21729;58.392;15.656;2022-11-20T07:47:14;1.88;;;1.70;;
35606;SDS011;21729;58.392;15.656;2022-11-20T07:49:42;2.03;;;1.70;;
35606;SDS011;21729;58.392;15.656;2022-11-20T07:52:10;1.83;;;1.63;;
35606;SDS011;21729;58.392;15.656;2022-11-20T07:54:37;1.77;;;1.60;;
35606;SDS011;21729;58.392;15.656;2022-11-20T07:57:04;2.00;;;1.90;;
35606;SDS011;21729;58.392;15.656;2022-11-20T07:59:31;1.90;;;1.80;;
35606;SDS011;21729;58.392;15.656;2022-11-20T08:01:58;1.90;;;1.80;;
35606;SDS011;21729;58.392;15.656;2022-11-20T08:04:25;2.13;;;1.70;;
35606;SDS011;21729;58.392;15.656;2022-11-20T08:06:53;1.83;;;1.73;;
35606;SDS011;21729;58.392;15.656;2022-11-20T08:09:20;2.10;;;1.70;;
35606;SDS011;21729;58.392;15.656;2022-11-20T08:11:47;2.38;;;2.03;;
35606;SDS011;21729;58.392;15.656;2022-11-20T08:14:31;2.03;;;1.83;;
35606;SDS011;21729;58.392;15.656;2022-11-20T08:16:58;2.38;;;2.00;;
35606;SDS011;21729;58.392;15.656;2022-11-20T08:19:25;2.40;;;2.20;;
35606;SDS011;21729;58.392;15.656;2022-11-20T08:21:54;3.33;;;2.00;;
35606;SDS011;21729;58.392;15.656;2022-11-20T08:24:21;4.90;;;2.15;;
35606;SDS011;21729;58.392;15.656;2022-11-20T08:26:49;1.80;;;1.70;;
35606;SDS011;21729;58.392;15.656;2022-11-20T08:29:17;2.33;;;2.00;;
35606;SDS011;21729;58.392;15.656;2022-11-20T08:31:44;2.55;;;1.88;;
35606;SDS011;21729;58.392;15.656;2022-11-20T08:34:11;2.00;;;1.90;;
35606;SDS011;21729;58.392;15.656;2022-11-20T08:36:38;2.13;;;2.03;;
35606;SDS011;21729;58.392;15.656;2022-11-20T08:39:07;1.77;;;1.67;;
35606;SDS011;21729;58.392;15.656;2022-11-20T08:41:34;2.10;;;2.00;;
35606;SDS011;21729;58.392;15.656;2022-11-20T08:44:02;1.98;;;1.75;;
35606;SDS011;21729;58.392;15.656;2022-11-20T08:46:32;2.10;;;1.90;;
35606;SDS011;21729;58.392;15.656;2022-11-20T08:49:01;3.22;;;2.15;;
35606;SDS011;21729;58.392;15.656;2022-11-20T08:51:28;1.88;;;1.77;;
35606;SDS011;21729;58.392;15.656;2022-11-20T08:53:55;12.05;;;7.63;;
35606;SDS011;21729;58.392;15.656;2022-11-20T08:56:24;5.32;;;4.10;;
35606;SDS011;21729;58.392;15.656;2022-11-20T08:58:51;2.20;;;2.00;;
35606;SDS011;21729;58.392;15.656;2022-11-20T09:01:18;1.98;;;1.88;;
35606;SDS011;21729;58.392;15.656;2022-11-20T09:03:46;1.80;;;1.70;;
35606;SDS011;21729;58.392;15.656;2022-11-20T09:06:13;2.20;;;2.00;;
35606;SDS011;21729;58.392;15.656;2022-11-20T09:08:40;1.88;;;1.77;;
35606;SDS011;21729;58.392;15.656;2022-11-20T09:11:08;2.10;;;1.70;;
35606;SDS011;21729;58.392;15.656;2022-11-20T09:13:36;1.85;;;1.50;;
35606;SDS011;21729;58.392;15.656;2022-11-20T09:16:04;1.80;;;1.70;;
35606;SDS011;21729;58.392;15.656;2022-11-20T09:18:33;2.42;;;1.80;;
35606;SDS011;21729;58.392;15.656;2022-11-20T09:21:03;1.70;;;1.60;;
35606;SDS011;21729;58.392;15.656;2022-11-20T09:23:32;1.50;;;1.40;;
35606;SDS011;21729;58.392;15.656;2022-11-20T09:26:01;1.60;;;1.50;;
35606;SDS011;21729;58.392;15.656;2022-11-20T09:28:29;1.65;;;1.45;;
35606;SDS011;21729;58.392;15.656;2022-11-20T09:30:58;1.48;;;1.38;;
35606;SDS011;21729;58.392;15.656;2022-11-20T09:33:25;1.33;;;1.23;;
35606;SDS011;21729;58.392;15.656;2022-11-20T09:35:52;1.80;;;1.40;;
35606;SDS011;21729;58.392;15.656;2022-11-20T09:38:19;1.93;;;1.83;;
35606;SDS011;21729;58.392;15.656;2022-11-20T09:40:48;1.60;;;1.50;;
35606;SDS011;21729;58.392;15.656;2022-11-20T09:43:24;1.50;;;1.40;;
35606;SDS011;21729;58.392;15.656;2022-11-20T09:46:04;1.30;;;1.20;;
35606;SDS011;21729;58.392;15.656;2022-11-20T09:48:39;2.30;;;1.27;;
35606;SDS011;21729;58.392;15.656;2022-11-20T09:51:16;1.52;;;1.30;;
35606;SDS011;21729;58.392;15.656;2022-11-20T09:53:55;2.08;;;1.60;;
35606;SDS011;21729;58.392;15.656;2022-11-20T09:56:33;1.52;;;1.33;;
35606;SDS011;21729;58.392;15.656;2022-11-20T09:59:03;1.50;;;1.40;;
35606;SDS011;21729;58.392;15.656;2022-11-20T10:01:35;2.30;;;1.13;;
35606;SDS011;21729;58.392;15.656;2022-11-20T10:04:08;1.50;;;1.20;;
35606;SDS011;21729;58.392;15.656;2022-11-20T10:06:41;1.35;;;1.23;;
35606;SDS011;21729;58.392;15.656;2022-11-20T10:09:16;1.30;;;1.20;;
35606;SDS011;21729;58.392;15.656;2022-11-20T10:11:51;1.30;;;1.20;;
35606;SDS011;21729;58.392;15.656;2022-11-20T10:14:29;1.40;;;1.30;;
35606;SDS011;21729;58.392;15.656;2022-11-20T10:17:08;1.65;;;1.20;;
35606;SDS011;21729;58.392;15.656;2022-11-20T10:19:47;1.30;;;1.20;;
35606;SDS011;21729;58.392;15.656;2022-11-20T10:22:35;1.15;;;1.10;;
35606;SDS011;21729;58.392;15.656;2022-11-20T10:25:13;1.33;;;1.23;;
35606;SDS011;21729;58.392;15.656;2022-11-20T10:27:49;1.60;;;1.20;;
35606;SDS011;21729;58.392;15.656;2022-11-20T10:30:34;1.48;;;1.25;;
35606;SDS011;21729;58.392;15.656;2022-11-20T10:33:05;1.35;;;1.25;;
35606;SDS011;21729;58.392;15.656;2022-11-20T10:35:39;1.40;;;1.15;;
35606;SDS011;21729;58.392;15.656;2022-11-20T10:38:09;1.40;;;1.13;;
35606;SDS011;21729;58.392;15.656;2022-11-20T10:40:43;1.30;;;1.20;;
35606;SDS011;21729;58.392;15.656;2022-11-20T10:43:12;1.20;;;1.10;;
35606;SDS011;21729;58.392;15.656;2022-11-20T10:45:48;1.30;;;1.20;;
35606;SDS011;21729;58.392;15.656;2022-11-20T10:48:22;1.20;;;1.10;;
35606;SDS011;21729;58.392;15.656;2022-11-20T10:50:55;1.80;;;1.25;;
35606;SDS011;21729;58.392;15.656;2022-11-20T10:53:38;1.17;;;1.05;;
35606;SDS011;21729;58.392;15.656;2022-11-20T10:56:14;1.90;;;1.10;;
35606;SDS011;21729;58.392;15.656;2022-11-20T10:58:48;1.50;;;1.00;;
35606;SDS011;21729;58.392;15.656;2022-11-20T11:01:26;1.15;;;0.93;;
35606;SDS011;21729;58.392;15.656;2022-11-20T11:03:55;1.80;;;1.23;;
35606;SDS011;21729;58.392;15.656;2022-11-20T11:06:25;1.30;;;1.07;;
35606;SDS011;21729;58.392;15.656;2022-11-20T11:08:59;1.13;;;1.08;;
35606;SDS011;21729;58.392;15.656;2022-11-20T11:11:32;1.27;;;1.20;;
35606;SDS011;21729;58.392;15.656;2022-11-20T11:14:06;2.70;;;1.30;;
35606;SDS011;21729;58.392;15.656;2022-11-20T11:16:34;1.58;;;1.48;;
35606;SDS011;21729;58.392;15.656;2022-11-20T11:19:06;1.40;;;1.30;;
35606;SDS011;21729;58.392;15.656;2022-11-20T11:21:38;1.38;;;1.27;;
35606;SDS011;21729;58.392;15.656;2022-11-20T11:24:15;1.83;;;1.20;;
35606;SDS011;21729;58.392;15.656;2022-11-20T11:26:51;1.20;;;1.10;;
35606;SDS011;21729;58.392;15.656;2022-11-20T11:29:21;1.20;;;1.10;;
35606;SDS011;21729;58.392;15.656;2022-11-20T11:31:49;1.47;;;1.10;;
35606;SDS011;21729;58.392;15.656;2022-11-20T11:34:17;1.30;;;1.20;;
35606;SDS011;21729;58.392;15.656;2022-11-20T11:36:49;1.33;;;1.23;;
35606;SDS011;21729;58.392;15.656;2022-11-20T11:39:20;1.40;;;1.30;;
35606;SDS011;21729;58.392;15.656;2022-11-20T11:41:47;1.10;;;1.10;;
35606;SDS011;21729;58.392;15.656;2022-11-20T11:44:16;1.60;;;1.30;;
35606;SDS011;21729;58.392;15.656;2022-11-20T11:47:04;1.58;;;0.95;;
35606;SDS011;21729;58.392;15.656;2022-11-20T11:49:38;1.33;;;1.23;;
35606;SDS011;21729;58.392;15.656;2022-11-20T11:52:08;1.75;;;1.00;;
35606;SDS011;21729;58.392;15.656;2022-11-20T11:54:41;1.10;;;1.00;;
35606;SDS011;21729;58.392;15.656;2022-11-20T11:57:15;1.23;;;1.02;;
35606;SDS011;21729;58.392;15.656;2022-11-20T11:59:59;1.38;;;1.17;;
35606;SDS011;21729;58.392;15.656;2022-11-20T12:02:32;1.20;;;1.10;;
35606;SDS011;21729;58.392;15.656;2022-11-20T12:05:08;1.30;;;1.20;;
35606;SDS011;21729;58.392;15.656;2022-11-20T12:07:43;1.25;;;1.20;;
35606;SDS011;21729;58.392;15.656;2022-11-20T12:10:14;1.48;;;1.25;;
35606;SDS011;21729;58.392;15.656;2022-11-20T12:12:48;1.30;;;1.20;;
35606;SDS011;21729;58.392;15.656;2022-11-20T12:15:31;1.92;;;1.25;;
35606;SDS011;21729;58.392;15.656;2022-11-20T12:18:00;1.75;;;1.10;;
35606;SDS011;21729;58.392;15.656;2022-11-20T12:20:31;1.05;;;1.00;;
35606;SDS011;21729;58.392;15.656;2022-11-20T12:23:02;1.25;;;1.10;;
35606;SDS011;21729;58.392;15.656;2022-11-20T12:25:36;1.30;;;1.20;;
35606;SDS011;21729;58.392;15.656;2022-11-20T12:28:10;1.20;;;1.10;;
35606;SDS011;21729;58.392;15.656;2022-11-20T12:30:51;0.93;;;0.90;;
35606;SDS011;21729;58.392;15.656;2022-11-20T12:33:35;1.27;;;1.10;;
35606;SDS011;21729;58.392;15.656;2022-11-20T12:36:21;1.38;;;1.00;;
35606;SDS011;21729;58.392;15.656;2022-11-20T12:39:02;1.23;;;1.13;;
35606;SDS011;21729;58.392;15.656;2022-11-20T12:41:51;1.95;;;1.20;;
35606;SDS011;21729;58.392;15.656;2022-11-20T12:44:49;1.00;;;0.90;;
35606;SDS011;21729;58.392;15.656;2022-11-20T12:47:39;1.77;;;1.33;;
35606;SDS011;21729;58.392;15.656;2022-11-20T12:50:21;1.30;;;1.20;;
35606;SDS011;21729;58.392;15.656;2022-11-20T12:52:56;1.60;;;1.15;;
35606;SDS011;21729;58.392;15.656;2022-11-20T12:55:33;1.08;;;0.90;;
35606;SDS011;21729;58.392;15.656;2022-11-20T12:58:09;1.30;;;1.20;;
35606;SDS011;21729;58.392;15.656;2022-11-20T13:00:41;1.40;;;1.10;;
35606;SDS011;21729;58.392;15.656;2022-11-20T13:03:23;2.08;;;1.45;;
35606;SDS011;21729;58.392;15.656;2022-11-20T13:06:05;1.70;;;1.20;;
35606;SDS011;21729;58.392;15.656;2022-11-20T13:08:40;1.13;;;1.00;;
35606;SDS011;21729;58.392;15.656;2022-11-20T13:11:11;1.58;;;1.10;;
35606;SDS011;21729;58.392;15.656;2022-11-20T13:13:45;1.52;;;1.10;;
35606;SDS011;21729;58.392;15.656;2022-11-20T13:16:30;1.60;;;1.10;;
35606;SDS011;21729;58.392;15.656;2022-11-20T13:19:02;1.05;;;0.95;;
35606;SDS011;21729;58.392;15.656;2022-11-20T13:21:37;1.20;;;0.90;;
35606;SDS011;21729;58.392;15.656;2022-11-20T13:24:07;1.17;;;1.00;;
35606;SDS011;21729;58.392;15.656;2022-11-20T13:26:48;2.08;;;1.10;;
35606;SDS011;21729;58.392;15.656;2022-11-20T13:29:26;1.30;;;1.10;;
35606;SDS011;21729;58.392;15.656;2022-11-20T13:32:01;1.60;;;0.97;;
35606;SDS011;21729;58.392;15.656;2022-11-20T13:34:30;0.90;;;0.90;;
35606;SDS011;21729;58.392;15.656;2022-11-20T13:36:58;1.52;;;1.20;;
35606;SDS011;21729;58.392;15.656;2022-11-20T13:39:31;2.50;;;1.10;;
35606;SDS011;21729;58.392;15.656;2022-11-20T13:42:00;0.90;;;0.90;;
35606;SDS011;21729;58.392;15.656;2022-11-20T13:44:29;1.70;;;1.50;;
35606;SDS011;21729;58.392;15.656;2022-11-20T13:47:02;4.43;;;2.60;;
35606;SDS011;21729;58.392;15.656;2022-11-20T13:49:31;1.50;;;1.40;;
35606;SDS011;21729;58.392;15.656;2022-11-20T13:52:06;1.48;;;1.20;;
35606;SDS011;21729;58.392;15.656;2022-11-20T13:55:00;1.23;;;1.13;;
35606;SDS011;21729;58.392;15.656;2022-11-20T13:57:38;1.40;;;1.20;;
35606;SDS011;21729;58.392;15.656;2022-11-20T14:00:22;1.30;;;1.20;;
35606;SDS011;21729;58.392;15.656;2022-11-20T14:02:57;1.53;;;1.03;;
35606;SDS011;21729;58.392;15.656;2022-11-20T14:05:38;0.80;;;0.80;;
35606;SDS011;21729;58.392;15.656;2022-11-20T14:08:14;1.20;;;0.90;;
35606;SDS011;21729;58.392;15.656;2022-11-20T14:10:51;1.30;;;1.10;;
35606;SDS011;21729;58.392;15.656;2022-11-20T14:13:29;1.50;;;0.80;;
35606;SDS011;21729;58.392;15.656;2022-11-20T14:15:56;0.93;;;0.90;;
35606;SDS011;21729;58.392;15.656;2022-11-20T14:18:25;1.05;;;1.00;;
35606;SDS011;21729;58.392;15.656;2022-11-20T14:20:53;2.60;;;1.00;;
35606;SDS011;21729;58.392;15.656;2022-11-20T14:23:24;1.50;;;1.40;;
35606;SDS011;21729;58.392;15.656;2022-11-20T14:25:54;1.00;;;1.00;;
35606;SDS011;21729;58.392;15.656;2022-11-20T14:28:24;0.80;;;0.80;;
35606;SDS011;21729;58.392;15.656;2022-11-20T14:30:53;0.90;;;0.90;;
35606;SDS011;21729;58.392;15.656;2022-11-20T14:33:21;1.08;;;0.80;;
35606;SDS011;21729;58.392;15.656;2022-11-20T14:35:51;0.80;;;0.80;;
35606;SDS011;21729;58.392;15.656;2022-11-20T14:38:21;1.10;;;0.90;;
35606;SDS011;21729;58.392;15.656;2022-11-20T14:40:51;1.25;;;1.02;;
35606;SDS011;21729;58.392;15.656;2022-11-20T14:43:21;1.50;;;1.30;;
35606;SDS011;21729;58.392;15.656;2022-11-20T14:45:54;2.45;;;1.70;;
35606;SDS011;21729;58.392;15.656;2022-11-20T14:48:26;2.83;;;1.50;;
35606;SDS011;21729;58.392;15.656;2022-11-20T14:50:56;5.57;;;3.47;;
35606;SDS011;21729;58.392;15.656;2022-11-20T14:53:24;1.40;;;1.30;;
35606;SDS011;21729;58.392;15.656;2022-11-20T14:55:57;1.10;;;1.00;;